Time;durP1;ratioP1;P1;durP2;ratioP2;P2;SDS_P1;SDS_P2;PMS_P1;PMS_P2;Temp;Humidity;BMP_temperature;BMP_pressure;BME280_temperature;BME280_humidity;BME280_pressure;Samples;Min_cycle;Max_cycle;Signal;HPM_P1;HPM_P2
2023/09/15 00:01:50;;;;;;;7.18;2.10;;;15.60;99.90;;;;;;5049510;28;20049;-57
2023/09/15 00:04:17;;;;;;;5.28;2.10;;;15.60;99.90;;;;;;5047640;28;20045;-56
2023/09/15 00:06:47;;;;;;;6.85;2.63;;;15.50;99.90;;;;;;5047402;28;20064;-57
2023/09/15 00:09:14;;;;;;;4.65;2.10;;;15.50;99.90;;;;;;5047323;28;20056;-57
2023/09/15 00:11:42;;;;;;;3.83;2.08;;;15.50;99.90;;;;;;5045591;28;20515;-57
2023/09/15 00:14:13;;;;;;;3.33;2.00;;;15.40;99.90;;;;;;5047508;28;20049;-58
2023/09/15 00:16:41;;;;;;;3.70;2.20;;;15.40;99.90;;;;;;5045464;28;20504;-57
2023/09/15 00:19:13;;;;;;;4.90;2.30;;;15.30;99.90;;;;;;5048514;28;20131;-59
2023/09/15 00:21:41;;;;;;;5.55;2.03;;;15.30;99.90;;;;;;5048289;28;20140;-57
2023/09/15 00:24:08;;;;;;;3.40;2.00;;;15.30;99.90;;;;;;5038024;28;20052;-57
2023/09/15 00:26:35;;;;;;;3.58;1.80;;;15.30;99.90;;;;;;5048406;28;20075;-56
2023/09/15 00:29:04;;;;;;;4.57;1.92;;;15.20;99.90;;;;;;5047886;28;20059;-54
2023/09/15 00:31:30;;;;;;;2.47;1.70;;;15.20;99.90;;;;;;5047979;28;20041;-62
2023/09/15 00:33:57;;;;;;;5.57;1.70;;;15.20;99.90;;;;;;5048734;28;20052;-57
2023/09/15 00:36:24;;;;;;;6.90;2.08;;;15.20;99.90;;;;;;5048652;28;20048;-58
2023/09/15 00:38:51;;;;;;;3.22;2.00;;;15.20;99.90;;;;;;5048442;28;20502;-57
2023/09/15 00:41:17;;;;;;;2.42;1.80;;;15.20;99.90;;;;;;5047889;28;20045;-58
2023/09/15 00:43:44;;;;;;;5.75;2.03;;;15.20;99.90;;;;;;5047034;28;20049;-57
2023/09/15 00:46:11;;;;;;;4.18;2.33;;;15.20;99.90;;;;;;5048325;28;20103;-57
2023/09/15 00:48:39;;;;;;;4.05;2.30;;;15.20;99.90;;;;;;5039358;28;20135;-58
2023/09/15 00:51:07;;;;;;;4.18;2.17;;;15.20;99.90;;;;;;5043997;28;20488;-58
2023/09/15 00:53:35;;;;;;;3.97;1.90;;;15.20;99.90;;;;;;5047363;28;20052;-58
2023/09/15 00:56:03;;;;;;;3.75;1.88;;;15.20;99.90;;;;;;5047307;28;20443;-58
2023/09/15 00:58:30;;;;;;;6.15;1.92;;;15.10;99.90;;;;;;5030899;28;20341;-56
2023/09/15 01:00:57;;;;;;;3.88;1.83;;;15.10;99.90;;;;;;5046901;28;20071;-58
2023/09/15 01:03:24;;;;;;;3.40;2.28;;;15.00;99.90;;;;;;4698722;28;10001718;-56
2023/09/15 01:05:51;;;;;;;5.55;2.20;;;15.10;99.90;;;;;;5035924;28;20567;-57
2023/09/15 01:08:18;;;;;;;2.58;1.77;;;15.00;99.90;;;;;;5044283;28;20049;-57
2023/09/15 01:10:45;;;;;;;2.47;1.88;;;15.10;99.90;;;;;;5046665;28;20430;-58
2023/09/15 01:13:12;;;;;;;3.83;2.22;;;15.10;99.90;;;;;;5053707;28;20052;-57
2023/09/15 01:15:46;;;;;;;3.55;2.22;;;15.10;99.90;;;;;;5046927;28;20037;-55
2023/09/15 01:18:37;;;;;;;4.50;2.30;;;15.00;99.90;;;;;;5046850;28;20546;-56
2023/09/15 01:21:39;;;;;;;4.43;1.98;;;15.00;99.90;;;;;;5046210;28;20041;-58
2023/09/15 01:24:18;;;;;;;4.10;2.15;;;14.90;99.90;;;;;;5007099;28;20112;-58
2023/09/15 01:26:55;;;;;;;4.07;2.40;;;14.90;99.90;;;;;;5040255;28;20045;-56
2023/09/15 01:29:46;;;;;;;4.85;1.92;;;14.90;99.90;;;;;;5045455;28;20076;-56
2023/09/15 01:32:14;;;;;;;4.30;1.95;;;14.80;99.90;;;;;;5046656;28;20045;-57
2023/09/15 01:34:46;;;;;;;2.88;2.08;;;14.70;99.90;;;;;;5030595;28;20107;-57
2023/09/15 01:37:13;;;;;;;4.65;2.35;;;14.70;99.90;;;;;;5046943;28;20053;-57
2023/09/15 01:39:40;;;;;;;6.88;2.42;;;14.70;99.90;;;;;;5047817;28;20335;-57
2023/09/15 01:42:07;;;;;;;4.72;2.38;;;14.60;99.90;;;;;;5047721;28;20527;-58
2023/09/15 01:44:34;;;;;;;4.20;2.00;;;14.60;99.90;;;;;;5047611;28;20049;-58
2023/09/15 01:47:00;;;;;;;2.60;2.25;;;14.70;99.90;;;;;;5038020;28;20103;-58
2023/09/15 01:49:27;;;;;;;2.70;2.15;;;14.70;99.90;;;;;;5047064;28;20080;-57
2023/09/15 01:51:55;;;;;;;5.63;2.55;;;14.70;99.90;;;;;;5029920;28;20142;-57
2023/09/15 01:54:22;;;;;;;3.10;2.45;;;14.60;99.90;;;;;;5047543;28;20266;-56
2023/09/15 01:56:49;;;;;;;4.68;2.38;;;14.60;99.90;;;;;;5046198;28;20266;-60
2023/09/15 01:59:15;;;;;;;4.13;2.40;;;14.60;99.90;;;;;;5047930;28;20083;-58
2023/09/15 02:01:42;;;;;;;5.13;2.60;;;14.60;99.90;;;;;;5046992;28;20114;-57
2023/09/15 02:04:09;;;;;;;3.65;3.00;;;14.60;99.90;;;;;;5047272;28;20496;-57
2023/09/15 02:06:36;;;;;;;5.00;2.55;;;14.60;99.90;;;;;;5047743;28;20484;-58
2023/09/15 02:09:06;;;;;;;7.10;2.78;;;14.60;99.90;;;;;;5047412;28;20048;-58
2023/09/15 02:11:33;;;;;;;7.57;2.45;;;14.60;99.90;;;;;;5046459;28;20514;-58
2023/09/15 02:14:00;;;;;;;5.00;3.08;;;14.60;99.90;;;;;;5045637;28;20053;-57
2023/09/15 02:16:28;;;;;;;5.82;3.28;;;14.70;99.90;;;;;;5047288;28;20048;-58
2023/09/15 02:18:55;;;;;;;4.55;2.90;;;14.70;99.90;;;;;;5046921;28;20438;-58
2023/09/15 02:21:21;;;;;;;5.45;2.95;;;14.70;99.90;;;;;;5047015;28;20041;-58
2023/09/15 02:23:48;;;;;;;5.35;2.55;;;14.70;99.90;;;;;;5046720;28;20045;-57
2023/09/15 02:26:15;;;;;;;5.35;3.13;;;14.60;99.90;;;;;;5043227;28;20087;-56
2023/09/15 02:28:42;;;;;;;5.15;2.55;;;14.60;99.90;;;;;;5042068;28;20040;-57
2023/09/15 02:31:08;;;;;;;7.82;3.53;;;14.50;99.90;;;;;;5046027;28;20072;-57
2023/09/15 02:33:35;;;;;;;5.75;3.15;;;14.50;99.90;;;;;;5051654;28;20045;-55
2023/09/15 02:36:03;;;;;;;7.82;3.20;;;14.50;99.90;;;;;;5051395;28;20041;-57
2023/09/15 02:38:30;;;;;;;6.70;2.80;;;14.50;99.90;;;;;;5053109;28;20110;-54
2023/09/15 02:40:57;;;;;;;4.85;2.83;;;14.40;99.90;;;;;;5051752;28;20124;-58
2023/09/15 02:43:24;;;;;;;4.97;3.20;;;14.40;99.90;;;;;;5053155;28;20483;-57
2023/09/15 02:45:51;;;;;;;5.10;3.22;;;14.40;99.90;;;;;;5052342;28;20079;-58
2023/09/15 02:48:18;;;;;;;6.32;2.72;;;14.40;99.90;;;;;;5051323;28;20573;-57
2023/09/15 02:50:45;;;;;;;4.30;2.90;;;14.40;99.90;;;;;;5049090;28;20606;-57
2023/09/15 02:53:13;;;;;;;4.90;2.60;;;14.40;99.90;;;;;;5049787;28;20049;-58
2023/09/15 02:55:39;;;;;;;2.80;2.28;;;14.40;99.90;;;;;;5050516;28;20099;-56
2023/09/15 02:58:06;;;;;;;6.32;3.33;;;14.30;99.90;;;;;;5050712;28;20111;-58
2023/09/15 03:00:33;;;;;;;3.85;2.90;;;14.40;99.90;;;;;;5050361;28;20045;-56
2023/09/15 03:03:00;;;;;;;2.80;2.15;;;14.40;99.90;;;;;;5050638;28;20045;-57
2023/09/15 03:05:27;;;;;;;2.70;1.88;;;14.30;99.90;;;;;;5050277;28;20049;-56
2023/09/15 03:07:54;;;;;;;3.95;2.70;;;14.20;99.90;;;;;;5049193;28;20053;-56
2023/09/15 03:10:20;;;;;;;4.50;3.13;;;14.10;99.90;;;;;;5036142;28;20400;-58
2023/09/15 03:12:47;;;;;;;6.57;2.72;;;14.10;99.90;;;;;;5050022;28;20492;-57
2023/09/15 03:15:15;;;;;;;5.25;2.78;;;14.10;99.90;;;;;;5050262;28;20106;-58
2023/09/15 03:17:42;;;;;;;4.82;2.92;;;14.10;99.90;;;;;;5049173;28;20068;-57
2023/09/15 03:20:13;;;;;;;4.65;2.30;;;14.10;99.90;;;;;;5050401;28;20106;-58
2023/09/15 03:22:40;;;;;;;7.07;3.42;;;14.20;99.90;;;;;;5049901;28;20705;-58
2023/09/15 03:25:07;;;;;;;3.67;2.72;;;14.20;99.90;;;;;;5049922;28;20049;-58
2023/09/15 03:27:34;;;;;;;3.78;2.70;;;14.20;99.90;;;;;;5049739;28;20075;-57
2023/09/15 03:30:04;;;;;;;4.13;3.00;;;14.20;99.90;;;;;;5050126;28;20048;-57
2023/09/15 03:32:31;;;;;;;5.65;3.35;;;14.20;99.90;;;;;;5049865;28;20108;-57
2023/09/15 03:34:58;;;;;;;5.57;3.10;;;14.20;99.90;;;;;;5049873;28;20442;-58
2023/09/15 03:37:25;;;;;;;6.05;3.70;;;14.10;99.90;;;;;;5049668;28;20110;-58
2023/09/15 03:39:52;;;;;;;6.63;3.08;;;14.10;99.90;;;;;;5048800;28;20053;-55
2023/09/15 03:42:19;;;;;;;6.63;3.03;;;14.00;99.90;;;;;;5049411;28;20045;-58
2023/09/15 03:44:46;;;;;;;6.88;3.30;;;14.00;99.90;;;;;;5049387;28;20037;-57
2023/09/15 03:47:13;;;;;;;5.50;3.50;;;14.10;99.90;;;;;;5049909;28;20102;-57
2023/09/15 03:49:40;;;;;;;6.70;3.63;;;14.00;99.90;;;;;;5041275;28;20046;-58
2023/09/15 03:52:07;;;;;;;4.70;3.22;;;13.90;99.90;;;;;;5046999;28;20129;-58
2023/09/15 03:54:34;;;;;;;6.97;3.85;;;13.80;99.90;;;;;;5049125;28;20053;-58
2023/09/15 03:57:00;;;;;;;5.35;3.30;;;13.80;99.90;;;;;;5049494;28;20463;-57
2023/09/15 03:59:27;;;;;;;4.30;3.45;;;13.70;99.90;;;;;;5049655;28;20098;-59
2023/09/15 04:01:54;;;;;;;5.75;3.75;;;13.80;99.90;;;;;;5049093;28;20057;-56
2023/09/15 04:04:21;;;;;;;3.72;3.15;;;13.70;99.90;;;;;;5042739;28;20045;-55
2023/09/15 04:06:48;;;;;;;3.30;2.67;;;13.70;99.90;;;;;;5031648;28;20526;-58
2023/09/15 04:09:14;;;;;;;7.57;4.00;;;13.70;99.90;;;;;;5047820;28;20420;-57
2023/09/15 04:11:41;;;;;;;7.10;3.42;;;13.70;99.90;;;;;;5048850;28;20504;-57
2023/09/15 04:14:08;;;;;;;7.15;3.60;;;13.70;99.90;;;;;;5048695;28;20136;-57
2023/09/15 04:16:37;;;;;;;5.47;3.45;;;13.80;99.90;;;;;;5049133;28;20087;-55
2023/09/15 04:19:04;;;;;;;6.05;3.60;;;13.90;99.90;;;;;;5048831;28;20107;-56
2023/09/15 04:21:31;;;;;;;4.60;3.47;;;13.90;99.90;;;;;;5045184;28;20048;-56
2023/09/15 04:23:58;;;;;;;6.28;4.10;;;13.80;99.90;;;;;;5041491;28;20057;-56
2023/09/15 04:26:25;;;;;;;4.40;2.60;;;13.80;99.90;;;;;;5049286;28;20385;-57
2023/09/15 04:28:51;;;;;;;5.90;3.33;;;13.70;99.90;;;;;;5048974;28;20114;-59
2023/09/15 04:31:18;;;;;;;4.38;2.75;;;13.70;99.90;;;;;;5048843;28;20056;-57
2023/09/15 04:33:45;;;;;;;6.43;3.17;;;13.60;99.90;;;;;;5048536;28;20655;-57
2023/09/15 04:36:12;;;;;;;4.88;2.95;;;13.60;99.90;;;;;;5049712;28;20328;-56
2023/09/15 04:38:39;;;;;;;5.05;2.40;;;13.60;99.90;;;;;;5048627;28;20068;-58
2023/09/15 04:41:06;;;;;;;8.88;3.00;;;13.50;99.90;;;;;;5048311;28;20515;-58
2023/09/15 04:43:33;;;;;;;5.15;3.00;;;13.50;99.90;;;;;;5048692;28;20049;-57
2023/09/15 04:45:59;;;;;;;5.75;2.80;;;13.50;99.90;;;;;;5048268;28;20487;-59
2023/09/15 04:48:26;;;;;;;4.45;2.90;;;13.50;99.90;;;;;;5048656;28;20045;-56
2023/09/15 04:50:53;;;;;;;4.10;2.75;;;13.40;99.90;;;;;;5048175;28;20072;-55
2023/09/15 04:53:22;;;;;;;7.53;2.95;;;13.40;99.90;;;;;;5049025;28;20045;-55
2023/09/15 04:55:50;;;;;;;4.75;3.05;;;13.30;99.90;;;;;;5047462;28;20068;-56
2023/09/15 04:58:17;;;;;;;5.15;2.88;;;13.30;99.90;;;;;;5048476;28;20056;-58
2023/09/15 05:00:43;;;;;;;4.65;2.97;;;13.30;99.90;;;;;;5047739;28;20122;-58
2023/09/15 05:03:10;;;;;;;4.85;3.05;;;13.30;99.90;;;;;;5047865;28;20052;-58
2023/09/15 05:05:37;;;;;;;5.25;3.28;;;13.30;99.90;;;;;;5047601;28;20053;-57
2023/09/15 05:08:04;;;;;;;7.22;3.40;;;13.30;99.90;;;;;;5048152;28;20072;-57
2023/09/15 05:10:31;;;;;;;7.60;4.70;;;13.20;99.90;;;;;;5047870;28;20098;-58
2023/09/15 05:12:58;;;;;;;5.03;4.03;;;13.30;99.90;;;;;;5047974;28;20045;-58
2023/09/15 05:15:25;;;;;;;5.18;3.38;;;13.30;99.90;;;;;;5047859;28;20501;-57
2023/09/15 05:17:52;;;;;;;6.90;3.92;;;13.30;99.90;;;;;;5046457;28;20052;-56
2023/09/15 05:20:19;;;;;;;7.80;4.00;;;13.20;99.90;;;;;;5047552;28;20079;-57
2023/09/15 05:22:45;;;;;;;6.03;3.38;;;13.20;99.90;;;;;;5047967;28;20258;-59
2023/09/15 05:25:12;;;;;;;6.18;4.30;;;13.20;99.90;;;;;;5047412;28;20044;-58
2023/09/15 05:27:39;;;;;;;5.40;3.97;;;13.20;99.90;;;;;;5047871;28;20323;-57
2023/09/15 05:30:07;;;;;;;6.22;3.83;;;13.20;99.90;;;;;;5047641;28;20504;-54
2023/09/15 05:32:33;;;;;;;5.65;3.30;;;13.20;99.90;;;;;;5046344;28;20041;-53
2023/09/15 05:35:00;;;;;;;4.78;3.30;;;13.20;99.90;;;;;;5047654;28;20106;-56
2023/09/15 05:37:27;;;;;;;10.27;3.67;;;13.20;99.90;;;;;;5047546;28;20045;-54
2023/09/15 05:39:54;;;;;;;4.47;3.55;;;13.20;99.90;;;;;;5047258;28;20056;-56
2023/09/15 05:42:21;;;;;;;7.28;4.20;;;13.10;99.90;;;;;;5044643;28;20090;-57
2023/09/15 05:44:48;;;;;;;11.32;4.47;;;13.10;99.90;;;;;;4695009;27;10000710;-57
2023/09/15 05:47:14;;;;;;;5.35;3.33;;;13.10;99.90;;;;;;5041470;28;20053;-56
2023/09/15 05:49:41;;;;;;;6.10;3.80;;;13.10;99.90;;;;;;5035667;28;20049;-56
2023/09/15 05:52:08;;;;;;;8.50;4.25;;;13.10;99.90;;;;;;5044099;28;20755;-56
2023/09/15 05:54:35;;;;;;;10.50;4.85;;;13.20;99.90;;;;;;5044449;28;20067;-58
2023/09/15 05:57:02;;;;;;;4.38;3.40;;;13.20;99.90;;;;;;5045213;28;20053;-56
2023/09/15 05:59:28;;;;;;;6.50;4.50;;;13.20;99.90;;;;;;5047830;28;20106;-57
2023/09/15 06:01:56;;;;;;;13.98;5.30;;;13.20;99.90;;;;;;5049519;28;20107;-56
2023/09/15 06:04:23;;;;;;;9.75;4.30;;;13.20;99.90;;;;;;5047184;28;20281;-58
2023/09/15 06:06:50;;;;;;;40.92;5.90;;;13.20;99.90;;;;;;5046643;28;20102;-56
2023/09/15 06:09:17;;;;;;;5.40;4.03;;;13.20;99.90;;;;;;5046542;28;20065;-56
2023/09/15 06:11:44;;;;;;;5.70;4.38;;;13.20;99.90;;;;;;5044935;28;20480;-59
2023/09/15 06:14:11;;;;;;;9.15;4.50;;;13.30;99.90;;;;;;5043525;28;20477;-56
2023/09/15 06:16:39;;;;;;;8.05;4.63;;;13.20;99.90;;;;;;5035626;28;20045;-58
2023/09/15 06:19:07;;;;;;;11.65;4.43;;;13.20;99.90;;;;;;5051302;28;20057;-54
2023/09/15 06:21:35;;;;;;;7.97;4.85;;;13.20;99.90;;;;;;5032816;28;20045;-57
2023/09/15 06:24:02;;;;;;;7.70;4.20;;;13.30;99.90;;;;;;5039747;28;20129;-56
2023/09/15 06:26:28;;;;;;;5.07;3.58;;;13.30;99.90;;;;;;5037759;28;20052;-59
2023/09/15 06:28:56;;;;;;;14.02;4.53;;;13.40;99.90;;;;;;5045432;28;20084;-57
2023/09/15 06:31:23;;;;;;;8.18;3.88;;;13.40;99.90;;;;;;5054780;28;20461;-55
2023/09/15 06:33:50;;;;;;;7.30;3.97;;;13.50;99.90;;;;;;5039421;28;20132;-57
2023/09/15 06:36:17;;;;;;;6.63;4.70;;;13.50;99.90;;;;;;5039696;28;20492;-58
2023/09/15 06:38:44;;;;;;;7.45;4.20;;;13.60;99.90;;;;;;5046294;28;20090;-56
2023/09/15 06:41:12;;;;;;;6.57;4.30;;;13.60;99.90;;;;;;5041902;28;20119;-55
2023/09/15 06:43:38;;;;;;;6.78;4.03;;;13.60;99.90;;;;;;5040977;28;20053;-57
2023/09/15 06:46:05;;;;;;;7.63;4.35;;;13.80;99.90;;;;;;5039262;28;20049;-57
2023/09/15 06:48:32;;;;;;;9.82;4.50;;;13.80;99.90;;;;;;5040491;28;20056;-61
2023/09/15 06:50:59;;;;;;;7.00;3.55;;;13.80;99.90;;;;;;5045059;28;20092;-57
2023/09/15 06:53:26;;;;;;;7.43;3.63;;;13.90;99.90;;;;;;5045108;28;20045;-57
2023/09/15 06:55:55;;;;;;;7.78;3.55;;;14.00;99.90;;;;;;5044394;28;20056;-58
2023/09/15 06:58:23;;;;;;;7.97;3.00;;;14.10;99.90;;;;;;5042595;28;20231;-57
2023/09/15 07:00:53;;;;;;;11.00;4.22;;;14.20;99.90;;;;;;5044652;28;20131;-54
2023/09/15 07:03:20;;;;;;;5.45;3.50;;;14.30;99.90;;;;;;5043694;28;20049;-57
2023/09/15 07:05:47;;;;;;;7.70;3.92;;;14.50;99.90;;;;;;5041195;28;20054;-59
2023/09/15 07:08:14;;;;;;;8.98;4.53;;;14.60;99.90;;;;;;5032648;28;20033;-57
2023/09/15 07:10:41;;;;;;;7.40;3.58;;;14.80;99.90;;;;;;5041711;28;20049;-57
2023/09/15 07:13:08;;;;;;;13.30;5.05;;;14.90;99.90;;;;;;5042422;28;20071;-57
2023/09/15 07:15:36;;;;;;;27.52;9.18;;;15.00;99.90;;;;;;5044910;28;20084;-56
2023/09/15 07:18:06;;;;;;;32.38;9.15;;;15.00;99.90;;;;;;5045824;28;20249;-57
2023/09/15 07:20:33;;;;;;;35.08;9.23;;;15.10;99.90;;;;;;5047979;28;20504;-58
2023/09/15 07:23:00;;;;;;;27.25;8.35;;;15.10;99.90;;;;;;5045206;28;20052;-57
2023/09/15 07:25:27;;;;;;;37.83;9.82;;;15.20;99.90;;;;;;5039692;28;20696;-56
2023/09/15 07:27:54;;;;;;;28.48;7.30;;;15.30;99.90;;;;;;5028754;28;20677;-59
2023/09/15 07:30:21;;;;;;;31.83;7.38;;;15.30;99.90;;;;;;5042018;28;20056;-57
2023/09/15 07:32:48;;;;;;;24.50;6.82;;;15.40;99.90;;;;;;5044193;28;20077;-57
2023/09/15 07:35:15;;;;;;;30.35;7.47;;;15.50;99.90;;;;;;5037023;28;20041;-57
2023/09/15 07:37:42;;;;;;;27.45;6.53;;;15.40;99.90;;;;;;5042414;28;20051;-54
2023/09/15 07:40:09;;;;;;;23.20;5.18;;;15.50;99.90;;;;;;5046622;28;20330;-56
2023/09/15 07:42:40;;;;;;;8.02;4.68;;;15.60;99.90;;;;;;5041072;28;20068;-56
2023/09/15 07:45:07;;;;;;;14.50;3.90;;;15.70;99.90;;;;;;5038490;28;20053;-55
2023/09/15 07:47:37;;;;;;;5.88;3.28;;;15.80;99.90;;;;;;5047090;28;20045;-57
2023/09/15 07:50:04;;;;;;;10.65;3.45;;;16.00;99.90;;;;;;5042261;28;20053;-57
2023/09/15 07:52:31;;;;;;;9.27;4.13;;;16.20;99.90;;;;;;5041199;28;20140;-56
2023/09/15 07:54:58;;;;;;;6.93;3.35;;;16.40;99.90;;;;;;5040120;28;20115;-56
2023/09/15 07:57:25;;;;;;;8.82;2.85;;;16.50;99.90;;;;;;4694598;27;9999836;-57
2023/09/15 07:59:52;;;;;;;9.93;2.17;;;16.50;99.90;;;;;;5052438;28;20052;-58
2023/09/15 08:02:20;;;;;;;12.93;2.88;;;16.60;99.90;;;;;;5041663;28;20427;-56
2023/09/15 08:04:47;;;;;;;12.20;2.47;;;16.60;99.90;;;;;;5047317;28;20143;-57
2023/09/15 08:07:14;;;;;;;10.30;2.63;;;16.60;99.90;;;;;;5048468;28;20443;-54
2023/09/15 08:09:41;;;;;;;10.00;2.45;;;16.70;99.90;;;;;;5044008;28;20049;-57
2023/09/15 08:12:08;;;;;;;12.23;2.65;;;16.80;99.90;;;;;;5046302;28;20654;-58
2023/09/15 08:14:35;;;;;;;11.07;2.17;;;16.90;99.90;;;;;;5037731;28;20505;-57
2023/09/15 08:17:02;;;;;;;10.32;2.45;;;17.00;99.90;;;;;;5042793;28;20522;-58
2023/09/15 08:19:29;;;;;;;12.13;2.55;;;17.10;99.90;;;;;;5045537;28;20415;-54
2023/09/15 08:22:00;;;;;;;10.40;2.83;;;17.20;99.90;;;;;;5046844;28;20499;-58
2023/09/15 08:24:27;;;;;;;10.27;2.08;;;17.40;99.90;;;;;;5047301;28;20099;-57
2023/09/15 08:26:54;;;;;;;6.95;2.40;;;17.50;99.90;;;;;;5045571;28;20044;-57
2023/09/15 08:29:20;;;;;;;10.55;2.85;;;17.70;99.90;;;;;;5035593;28;20132;-58
2023/09/15 08:31:48;;;;;;;12.52;4.47;;;17.80;99.90;;;;;;5051033;28;20052;-56
2023/09/15 08:34:15;;;;;;;8.43;2.95;;;17.90;99.90;;;;;;5052201;28;20052;-57
2023/09/15 08:36:42;;;;;;;11.20;3.08;;;18.10;99.90;;;;;;5041202;28;20053;-56
2023/09/15 08:39:09;;;;;;;14.93;3.17;;;18.20;99.90;;;;;;5052512;28;20040;-59
2023/09/15 08:41:50;;;;;;;12.25;3.20;;;18.20;99.90;;;;;;5039625;28;20041;-58
2023/09/15 08:44:17;;;;;;;14.35;3.75;;;18.40;99.90;;;;;;5039460;28;20569;-55
2023/09/15 08:46:45;;;;;;;5.45;3.60;;;18.60;99.90;;;;;;5034327;28;20049;-57
2023/09/15 08:49:14;;;;;;;9.88;4.25;;;18.80;99.90;;;;;;5041630;28;20045;-56
2023/09/15 08:51:46;;;;;;;13.27;4.32;;;18.90;99.90;;;;;;5016656;28;20142;-57
2023/09/15 08:54:13;;;;;;;8.32;3.20;;;19.10;99.90;;;;;;5045552;28;20496;-57
2023/09/15 08:56:40;;;;;;;4.75;2.47;;;19.20;99.90;;;;;;5047088;28;20056;-56
2023/09/15 08:59:08;;;;;;;6.88;4.50;;;19.30;99.90;;;;;;5051958;28;20045;-56
2023/09/15 09:01:35;;;;;;;11.00;4.72;;;19.40;99.90;;;;;;5047229;28;20057;-57
2023/09/15 09:04:03;;;;;;;27.98;7.03;;;19.50;99.90;;;;;;5048304;28;20049;-58
2023/09/15 09:06:34;;;;;;;18.17;5.10;;;19.50;99.90;;;;;;5047604;28;20057;-58
2023/09/15 09:09:02;;;;;;;13.80;4.63;;;19.60;99.90;;;;;;5046727;28;20064;-57
2023/09/15 09:11:29;;;;;;;14.95;4.93;;;19.60;99.90;;;;;;5064302;28;20504;-56
2023/09/15 09:13:56;;;;;;;9.82;4.80;;;19.90;99.90;;;;;;5049760;28;20044;-55
2023/09/15 09:16:24;;;;;;;8.73;4.47;;;20.30;99.90;;;;;;5046946;28;20080;-58
2023/09/15 09:18:58;;;;;;;8.43;4.40;;;20.50;99.90;;;;;;5076818;28;20052;-60
2023/09/15 09:21:30;;;;;;;9.18;4.40;;;20.80;99.90;;;;;;5046794;28;20159;-58
2023/09/15 09:23:57;;;;;;;10.35;5.05;;;21.20;99.90;;;;;;5046606;28;20511;-59
2023/09/15 09:26:24;;;;;;;7.70;4.25;;;21.40;99.90;;;;;;5049144;28;20041;-60
2023/09/15 09:28:54;;;;;;;14.18;3.90;;;21.40;99.90;;;;;;5045892;28;20057;-59
2023/09/15 09:31:24;;;;;;;7.40;4.55;;;21.70;99.90;;;;;;5045356;28;20136;-58
2023/09/15 09:33:51;;;;;;;7.85;4.00;;;21.90;99.90;;;;;;5045876;28;20102;-60
2023/09/15 09:36:18;;;;;;;8.88;3.60;;;22.20;99.90;;;;;;5045131;28;20072;-57
2023/09/15 09:38:49;;;;;;;8.82;3.15;;;22.30;99.90;;;;;;5041167;28;20439;-58
2023/09/15 09:41:21;;;;;;;8.93;3.83;;;22.50;99.90;;;;;;5028131;28;20465;-59
2023/09/15 09:43:48;;;;;;;14.15;4.90;;;22.40;99.90;;;;;;5041149;28;20550;-59
2023/09/15 09:46:18;;;;;;;8.25;3.58;;;22.50;99.90;;;;;;5045111;28;20046;-59
2023/09/15 09:48:44;;;;;;;6.68;4.00;;;22.20;99.90;;;;;;5015725;28;20048;-59
2023/09/15 09:51:13;;;;;;;10.85;5.13;;;22.10;99.90;;;;;;5028986;28;20496;-60
2023/09/15 09:53:40;;;;;;;9.32;4.43;;;21.90;99.90;;;;;;5044376;28;20059;-58
2023/09/15 09:56:07;;;;;;;10.90;4.72;;;21.60;99.90;;;;;;5042628;28;20068;-58
2023/09/15 09:58:35;;;;;;;19.05;5.20;;;21.60;99.90;;;;;;5047824;28;20049;-56
2023/09/15 10:01:11;;;;;;;10.40;4.40;;;21.60;99.90;;;;;;5042251;28;20056;-59
2023/09/15 10:03:40;;;;;;;15.35;4.28;;;21.50;99.90;;;;;;5039437;28;20103;-57
2023/09/15 10:06:08;;;;;;;13.85;5.25;;;21.50;99.90;;;;;;5045541;28;20571;-58
2023/09/15 10:08:39;;;;;;;10.00;4.90;;;21.60;99.90;;;;;;5043886;28;20080;-57
2023/09/15 10:11:07;;;;;;;10.20;4.53;;;21.50;99.90;;;;;;5040726;28;20097;-59
2023/09/15 10:13:33;;;;;;;12.80;4.90;;;21.50;99.90;;;;;;5040775;28;20354;-58
2023/09/15 10:16:00;;;;;;;11.68;5.15;;;21.40;99.90;;;;;;5027706;28;20072;-58
2023/09/15 10:18:28;;;;;;;7.75;4.57;;;21.40;99.90;;;;;;5045743;28;20130;-58
2023/09/15 10:20:55;;;;;;;9.90;4.85;;;21.30;99.90;;;;;;5044577;28;20158;-58
2023/09/15 10:23:22;;;;;;;8.75;4.68;;;21.40;99.90;;;;;;5042007;28;20098;-60
2023/09/15 10:25:51;;;;;;;11.75;5.72;;;21.40;99.90;;;;;;5037078;28;20507;-57
2023/09/15 10:28:19;;;;;;;11.90;4.60;;;21.40;99.90;;;;;;5037523;28;20081;-57
2023/09/15 10:31:06;;;;;;;9.30;4.07;;;21.40;99.90;;;;;;5035287;28;20053;-55
2023/09/15 10:33:38;;;;;;;7.80;3.90;;;21.40;99.90;;;;;;5046359;28;20056;-56
2023/09/15 10:36:04;;;;;;;11.60;3.95;;;21.40;99.90;;;;;;5043072;28;20518;-58
2023/09/15 10:38:35;;;;;;;12.75;4.05;;;21.40;99.90;;;;;;5045864;28;20047;-58
2023/09/15 10:41:05;;;;;;;10.82;4.95;;;21.60;99.90;;;;;;5045157;28;20166;-56
2023/09/15 10:43:32;;;;;;;11.98;4.60;;;21.70;99.90;;;;;;5046652;28;20132;-56
2023/09/15 10:46:03;;;;;;;7.32;4.25;;;21.70;99.90;;;;;;5045118;28;20060;-56
2023/09/15 10:48:37;;;;;;;10.48;5.32;;;21.70;99.90;;;;;;5037402;28;20068;-58
2023/09/15 10:51:07;;;;;;;11.93;5.75;;;21.70;99.90;;;;;;5044678;28;20091;-58
2023/09/15 10:53:50;;;;;;;10.55;5.47;;;21.70;99.90;;;;;;5049107;28;20124;-57
2023/09/15 10:56:18;;;;;;;9.23;4.82;;;21.60;99.90;;;;;;5049389;28;20511;-56
2023/09/15 10:58:48;;;;;;;10.48;5.25;;;21.60;99.90;;;;;;5050062;28;20053;-57
2023/09/15 11:01:16;;;;;;;21.35;7.20;;;21.70;99.90;;;;;;5049318;28;20080;-58
2023/09/15 11:03:43;;;;;;;20.70;6.97;;;21.80;99.90;;;;;;5049776;28;20549;-58
2023/09/15 11:06:11;;;;;;;9.77;5.38;;;21.80;99.90;;;;;;5058959;28;20057;-57
2023/09/15 11:08:39;;;;;;;13.40;5.90;;;21.80;99.90;;;;;;5052739;28;20553;-59
2023/09/15 11:11:11;;;;;;;10.82;5.70;;;21.90;99.90;;;;;;5043126;28;20054;-56
2023/09/15 11:13:41;;;;;;;12.38;6.20;;;22.00;99.90;;;;;;5048479;28;20048;-57
2023/09/15 11:16:09;;;;;;;15.02;8.02;;;22.10;99.90;;;;;;5049283;28;20052;-59
2023/09/15 11:18:37;;;;;;;11.98;5.82;;;22.20;99.90;;;;;;5037470;28;20049;-58
2023/09/15 11:21:07;;;;;;;16.08;6.05;;;22.20;99.90;;;;;;5039383;28;20048;-57
2023/09/15 11:23:34;;;;;;;10.25;5.22;;;22.30;99.90;;;;;;5051237;28;20095;-58
2023/09/15 11:26:07;;;;;;;10.50;3.65;;;22.40;99.90;;;;;;5028997;28;20045;-58
2023/09/15 11:28:54;;;;;;;9.55;3.50;;;22.50;99.90;;;;;;5046784;28;20053;-58
2023/09/15 11:31:22;;;;;;;8.88;3.00;;;22.50;99.90;;;;;;5038388;28;20045;-58
2023/09/15 11:33:51;;;;;;;8.70;3.13;;;22.60;99.90;;;;;;5039696;28;20485;-59
2023/09/15 11:36:20;;;;;;;4.38;3.08;;;22.70;99.90;;;;;;5042231;28;20044;-60
2023/09/15 11:38:47;;;;;;;11.02;3.88;;;22.80;99.90;;;;;;5053614;28;20131;-56
2023/09/15 11:41:16;;;;;;;8.48;2.58;;;22.80;99.90;;;;;;5046460;28;20063;-58
2023/09/15 11:43:43;;;;;;;7.57;2.22;;;22.90;99.90;;;;;;5046652;28;20124;-58
2023/09/15 11:46:10;;;;;;;5.78;1.92;;;22.90;99.90;;;;;;5047903;28;20149;-59
2023/09/15 11:48:38;;;;;;;3.90;2.45;;;23.00;99.90;;;;;;5047487;28;20127;-56
2023/09/15 11:51:09;;;;;;;5.13;2.17;;;23.00;99.90;;;;;;5036811;28;20078;-56
2023/09/15 11:53:37;;;;;;;8.70;2.42;;;23.10;99.90;;;;;;5044828;28;20038;-59
2023/09/15 11:56:04;;;;;;;8.45;1.90;;;23.20;99.90;;;;;;5036039;28;20053;-58
2023/09/15 11:58:32;;;;;;;6.47;1.90;;;23.30;99.90;;;;;;5047539;28;20082;-57
2023/09/15 12:01:01;;;;;;;3.58;2.50;;;23.30;99.90;;;;;;5047080;28;20152;-57
2023/09/15 12:03:31;;;;;;;5.50;2.40;;;23.40;99.90;;;;;;5030523;28;20045;-64
2023/09/15 12:05:58;;;;;;;6.75;2.13;;;23.50;99.90;;;;;;5030243;28;20056;-58
2023/09/15 12:08:25;;;;;;;5.82;2.83;;;23.50;99.90;;;;;;5045445;28;20045;-56
2023/09/15 12:10:52;;;;;;;4.85;2.30;;;23.60;99.90;;;;;;5039644;28;20126;-58
2023/09/15 12:13:38;;;;;;;8.00;1.98;;;23.70;99.90;;;;;;5041697;28;20068;-57
2023/09/15 12:16:05;;;;;;;3.38;2.22;;;23.90;99.90;;;;;;5056161;28;20045;-58
2023/09/15 12:18:36;;;;;;;4.85;2.00;;;24.00;99.90;;;;;;5030903;28;20511;-58
2023/09/15 12:21:10;;;;;;;4.63;2.88;;;24.00;99.90;;;;;;5050519;28;20591;-58
2023/09/15 12:23:37;;;;;;;3.38;1.73;;;24.00;99.90;;;;;;5037859;28;20045;-58
2023/09/15 12:26:04;;;;;;;4.47;2.00;;;24.10;99.90;;;;;;5039318;28;20045;-60
2023/09/15 12:28:32;;;;;;;6.22;2.38;;;24.10;99.90;;;;;;5041232;28;20620;-59
2023/09/15 12:30:59;;;;;;;6.80;2.58;;;24.10;99.90;;;;;;5038580;28;20049;-57
2023/09/15 12:33:26;;;;;;;4.75;2.60;;;24.00;99.90;;;;;;5037674;28;20045;-59
2023/09/15 12:35:53;;;;;;;3.97;2.35;;;24.00;99.90;;;;;;5049200;28;20344;-58
2023/09/15 12:38:20;;;;;;;4.80;1.95;;;23.90;99.90;;;;;;5038247;28;20053;-59
2023/09/15 12:40:50;;;;;;;6.68;2.53;;;24.00;99.90;;;;;;5042075;28;20614;-58
2023/09/15 12:43:17;;;;;;;8.10;2.50;;;24.00;99.90;;;;;;5046149;28;20132;-59
2023/09/15 12:45:44;;;;;;;5.35;1.90;;;24.10;99.90;;;;;;5040629;28;20052;-58
2023/09/15 12:48:11;;;;;;;5.32;1.75;;;24.10;99.90;;;;;;5048656;28;20135;-57